CheckWX is a tool to help pilots better visualize weather data.  It is not intended as a substitute for an official pre-flight weather briefing.

14:30:03 UTC

KCMA METAR
Camarillo Airport
Camarillo, California, USA
Current

35 mins ago

KCMA 221355Z 00000KT 8SM CLR 10/07 A3001 RMK AO2 SLP171 T01000067
Observed
Apr-22 @ 13:55 UTC
Visibility
8 SM
Flight Rules
VFR
Cloud Levels
  • Clear skies
Temperature
10°C / 50°F
Dewpoint
C / 45°F
Humidity
82%
Altimeter
30.01" Hg
Pressure
1016.22 hPa
Previous

2 hours ago

KCMA 221255Z AUTO 04003KT 10SM CLR 11/07 A2999 RMK AO2 SLP164 T01060067
Observed
Apr-22 @ 12:55 UTC
Wind
  • 040° at 3 KTS
Visibility
10 SM
Flight Rules
VFR
Cloud Levels
  • Clear skies
Temperature
11°C / 52°F
Dewpoint
C / 45°F
Humidity
77%
Altimeter
29.99" Hg
Pressure
1015.62 hPa
Previous

3 hours ago

KCMA 221155Z 06003KT 9SM CLR 11/07 A2999 RMK AO2 SLP163 T01060067 10139 20106 56006
Observed
Apr-22 @ 11:55 UTC
Wind
  • 060° at 3 KTS
Visibility
9 SM
Flight Rules
VFR
Cloud Levels
  • Clear skies
Temperature
11°C / 52°F
Dewpoint
C / 45°F
Humidity
77%
Altimeter
29.99" Hg
Pressure
1015.62 hPa